CheckWX is a tool to help pilots better visualize weather data.  It is not intended as a substitute for an official pre-flight weather briefing.

02:11:33 UTC

ENMS METAR
Mosjøen , Kjærstad Airport
Norway
Current

6 hours ago

ENMS 172020Z 00000KT 9999 FEW035 M01/M02 Q1010 RMK WIND 412FT 24003KT 200V310
Observed
Feb-17 @ 20:20 UTC
Visibility
10,000+ meters
Flight Rules
VFR
Cloud Levels
  • Few at 3,500' AGL
Temperature
-1°C / 30°F
Dewpoint
-2°C / 28°F
Humidity
93%
Altimeter
29.82" Hg
Pressure
1009.92 hPa
Previous

6 hours ago

ENMS 171950Z 00000KT 9999 FEW035 M01/M02 Q1010 RMK WIND 412FT 16004KT 080V240
Observed
Feb-17 @ 19:50 UTC
Visibility
10,000+ meters
Flight Rules
VFR
Cloud Levels
  • Few at 3,500' AGL
Temperature
-1°C / 30°F
Dewpoint
-2°C / 28°F
Humidity
93%
Altimeter
29.82" Hg
Pressure
1009.92 hPa
Previous

7 hours ago

ENMS 171920Z VRB02KT 9999 FEW035 M01/M02 Q1010 RMK WIND 412FT 21004KT
Observed
Feb-17 @ 19:20 UTC
Wind
  • Variable at 2 KTS
Visibility
10,000+ meters
Flight Rules
VFR
Cloud Levels
  • Few at 3,500' AGL
Temperature
-1°C / 30°F
Dewpoint
-2°C / 28°F
Humidity
93%
Altimeter
29.82" Hg
Pressure
1009.92 hPa